Time;durP1;ratioP1;P1;durP2;ratioP2;P2;SDS_P1;SDS_P2;PMS_P1;PMS_P2;Temp;Humidity;BMP_temperature;BMP_pressure;BME280_temperature;BME280_humidity;BME280_pressure;Samples;Min_cycle;Max_cycle;Signal;HPM_P1;HPM_P2
2022/07/12 00:01:57;;;;;;;6.50;3.80;;;14.00;86.60;;;;;;5004441;28;20301;-70
2022/07/12 00:04:22;;;;;;;6.13;3.93;;;14.00;86.50;;;;;;5005549;28;20534;-70
2022/07/12 00:06:48;;;;;;;5.17;4.03;;;13.90;86.60;;;;;;4970397;28;20437;-69
2022/07/12 00:09:14;;;;;;;5.50;4.27;;;13.90;86.80;;;;;;5004776;28;20042;-69
2022/07/12 00:11:40;;;;;;;5.57;3.87;;;13.90;86.90;;;;;;5016023;28;20046;-69
2022/07/12 00:14:06;;;;;;;6.87;4.50;;;13.80;86.70;;;;;;5004961;28;20033;-69
2022/07/12 00:16:32;;;;;;;5.80;4.20;;;13.80;86.90;;;;;;5016399;28;20277;-69
2022/07/12 00:18:58;;;;;;;7.43;4.50;;;13.80;86.90;;;;;;4979461;28;20499;-69
2022/07/12 00:21:24;;;;;;;5.83;4.17;;;13.70;87.00;;;;;;4989433;28;20046;-69
2022/07/12 00:23:50;;;;;;;6.90;4.70;;;13.70;86.80;;;;;;5006723;28;20697;-70
2022/07/12 00:26:16;;;;;;;5.77;3.90;;;13.70;87.10;;;;;;5006650;28;20289;-70
2022/07/12 00:28:42;;;;;;;9.57;4.67;;;13.60;87.40;;;;;;4996335;28;20081;-70
2022/07/12 00:31:07;;;;;;;6.40;4.13;;;13.60;87.40;;;;;;5006288;28;20030;-70
2022/07/12 00:33:33;;;;;;;10.60;4.60;;;13.60;87.50;;;;;;5003409;28;20049;-70
2022/07/12 00:35:59;;;;;;;6.53;3.93;;;13.60;87.70;;;;;;5003689;28;20355;-70
2022/07/12 00:38:24;;;;;;;7.47;4.33;;;13.60;87.60;;;;;;5005550;28;20038;-70
2022/07/12 00:40:50;;;;;;;5.20;3.83;;;13.60;87.90;;;;;;5005767;28;20052;-70
2022/07/12 00:43:16;;;;;;;14.33;4.40;;;13.60;88.00;;;;;;5006402;28;20049;-70
2022/07/12 00:45:42;;;;;;;5.77;3.77;;;13.50;88.10;;;;;;5003784;28;20100;-70
2022/07/12 00:48:08;;;;;;;58.57;5.33;;;13.60;88.10;;;;;;5006215;28;20065;-70
2022/07/12 00:50:34;;;;;;;5.50;3.30;;;13.60;88.30;;;;;;5000664;28;20092;-70
2022/07/12 00:52:59;;;;;;;8.53;3.07;;;13.50;88.30;;;;;;4997980;28;21015;-69
2022/07/12 00:55:25;;;;;;;7.63;3.37;;;13.50;88.50;;;;;;5006283;28;20050;-70
2022/07/12 00:57:51;;;;;;;9.53;3.47;;;13.50;88.90;;;;;;4970553;28;20093;-70
2022/07/12 01:00:26;;;;;;;10.13;3.60;;;13.60;89.10;;;;;;5004354;28;20104;-70
2022/07/12 01:02:56;;;;;;;4.30;3.47;;;13.50;88.90;;;;;;4999402;28;20304;-70
2022/07/12 01:05:23;;;;;;;5.13;3.30;;;13.50;88.90;;;;;;5002384;28;20042;-70
2022/07/12 01:07:50;;;;;;;5.13;3.20;;;13.50;89.00;;;;;;5000373;28;20304;-69
2022/07/12 01:10:16;;;;;;;4.50;3.17;;;13.50;89.30;;;;;;5004714;28;20308;-69
2022/07/12 01:12:42;;;;;;;4.17;2.70;;;13.50;89.40;;;;;;5005724;28;20281;-69
2022/07/12 01:15:08;;;;;;;6.40;3.53;;;13.50;89.50;;;;;;5006064;28;20522;-69
2022/07/12 01:17:35;;;;;;;7.87;3.17;;;13.60;89.60;;;;;;4985739;28;20290;-69
2022/07/12 01:20:01;;;;;;;3.80;2.53;;;13.60;89.50;;;;;;5015299;28;20328;-69
2022/07/12 01:22:32;;;;;;;4.20;2.30;;;13.60;89.50;;;;;;5005830;28;20299;-69
2022/07/12 01:24:58;;;;;;;12.83;3.07;;;13.60;89.50;;;;;;5006142;28;20312;-69
2022/07/12 01:27:24;;;;;;;14.73;3.33;;;13.60;89.50;;;;;;5005690;28;20297;-69
2022/07/12 01:29:50;;;;;;;12.70;3.47;;;13.60;89.40;;;;;;4985986;28;20409;-69
2022/07/12 01:32:25;;;;;;;23.63;3.63;;;13.60;89.30;;;;;;5004561;28;20061;-69
2022/07/12 01:34:53;;;;;;;24.33;4.00;;;13.60;89.70;;;;;;4978836;28;20044;-69
2022/07/12 01:37:20;;;;;;;17.20;3.30;;;13.70;89.90;;;;;;5002790;28;20824;-69
2022/07/12 01:39:48;;;;;;;50.90;4.47;;;13.60;89.90;;;;;;5004211;28;20284;-69
2022/07/12 01:42:14;;;;;;;40.63;4.13;;;13.60;89.70;;;;;;4985458;28;20288;-70
2022/07/12 01:44:41;;;;;;;39.40;4.53;;;13.60;89.90;;;;;;5004816;28;20291;-70
2022/07/12 01:47:07;;;;;;;21.87;3.67;;;13.60;89.90;;;;;;5002629;28;20068;-70
2022/07/12 01:49:33;;;;;;;14.33;2.63;;;13.60;90.10;;;;;;4987690;28;20672;-70
2022/07/12 01:51:59;;;;;;;9.97;2.70;;;13.60;90.30;;;;;;5004731;28;20176;-70
2022/07/12 01:54:25;;;;;;;15.97;2.93;;;13.50;90.40;;;;;;5005179;28;20108;-70
2022/07/12 01:56:55;;;;;;;14.47;3.03;;;13.50;90.60;;;;;;5004411;28;20285;-70
2022/07/12 01:59:21;;;;;;;10.27;2.47;;;13.50;90.60;;;;;;4994885;28;20289;-70
2022/07/12 02:01:48;;;;;;;5.50;2.40;;;13.50;90.80;;;;;;5000363;28;20289;-70
2022/07/12 02:04:20;;;;;;;12.50;2.60;;;13.40;90.70;;;;;;4981954;28;20375;-70
2022/07/12 02:06:50;;;;;;;8.53;2.60;;;13.40;90.60;;;;;;4987373;28;20384;-70
2022/07/12 02:09:16;;;;;;;3.87;2.10;;;13.40;90.70;;;;;;5004191;28;20300;-70
2022/07/12 02:11:42;;;;;;;7.83;2.20;;;13.30;90.40;;;;;;5004237;28;20308;-70
2022/07/12 02:14:09;;;;;;;3.90;2.07;;;13.30;90.30;;;;;;5005127;28;20284;-70
2022/07/12 02:16:35;;;;;;;8.10;2.03;;;13.20;90.30;;;;;;5004812;28;20289;-70
2022/07/12 02:19:02;;;;;;;4.03;2.13;;;13.20;90.20;;;;;;5003584;28;20904;-70
2022/07/12 02:21:28;;;;;;;5.53;1.87;;;13.20;90.20;;;;;;5000005;28;20301;-70
2022/07/12 02:23:53;;;;;;;6.87;1.90;;;13.10;90.20;;;;;;5002584;28;20292;-70
2022/07/12 02:26:19;;;;;;;8.83;1.87;;;13.10;90.10;;;;;;4998423;28;20285;-70
2022/07/12 02:28:46;;;;;;;10.10;2.13;;;13.00;90.40;;;;;;5003465;28;20414;-70
2022/07/12 02:31:11;;;;;;;8.57;1.97;;;13.00;90.20;;;;;;4988882;28;20359;-69
2022/07/12 02:33:37;;;;;;;24.73;3.13;;;13.00;90.40;;;;;;4996941;28;20301;-69
2022/07/12 02:36:03;;;;;;;19.47;2.33;;;13.00;90.40;;;;;;5001776;28;20405;-70
2022/07/12 02:38:28;;;;;;;19.50;1.67;;;13.00;90.60;;;;;;5004586;28;20038;-70
2022/07/12 02:40:54;;;;;;;8.83;1.43;;;12.90;90.60;;;;;;4989544;28;20489;-70
2022/07/12 02:43:25;;;;;;;9.90;1.20;;;12.90;90.50;;;;;;5008773;28;20042;-70
2022/07/12 02:45:57;;;;;;;5.63;1.10;;;12.90;90.50;;;;;;5008405;28;20068;-70
2022/07/12 02:48:23;;;;;;;9.40;1.13;;;12.80;90.50;;;;;;5008410;28;20380;-70
2022/07/12 02:50:49;;;;;;;2.10;1.17;;;12.80;90.50;;;;;;5005035;28;20396;-70
2022/07/12 02:53:15;;;;;;;2.63;0.80;;;12.80;90.60;;;;;;4992468;28;20545;-70
2022/07/12 02:55:41;;;;;;;10.10;1.50;;;12.80;90.60;;;;;;4992416;28;20041;-70
2022/07/12 02:58:07;;;;;;;14.10;1.87;;;12.80;90.60;;;;;;5007674;28;20684;-70
2022/07/12 03:00:34;;;;;;;5.43;1.37;;;12.70;90.60;;;;;;5007819;28;20049;-70
2022/07/12 03:03:00;;;;;;;8.13;1.20;;;12.70;90.80;;;;;;5007425;28;20289;-70
2022/07/12 03:05:26;;;;;;;11.40;0.80;;;12.70;90.80;;;;;;4998167;28;20411;-70
2022/07/12 03:07:52;;;;;;;8.00;0.90;;;12.70;91.00;;;;;;5007733;28;20281;-70
2022/07/12 03:10:18;;;;;;;4.10;0.80;;;12.70;91.00;;;;;;5004218;28;20363;-70
2022/07/12 03:12:44;;;;;;;4.70;0.83;;;12.60;91.10;;;;;;5007091;28;20049;-70
2022/07/12 03:15:10;;;;;;;7.53;1.20;;;12.60;91.10;;;;;;5007787;28;20450;-70
2022/07/12 03:17:36;;;;;;;2.57;0.90;;;12.60;90.90;;;;;;4990676;28;20597;-70
2022/07/12 03:20:08;;;;;;;1.30;0.70;;;12.50;90.90;;;;;;5006226;28;20296;-70
2022/07/12 03:22:34;;;;;;;6.80;0.93;;;12.50;91.00;;;;;;4990253;28;20045;-70
2022/07/12 03:25:00;;;;;;;3.90;0.80;;;12.50;91.00;;;;;;5006235;28;20285;-70
2022/07/12 03:27:26;;;;;;;34.43;2.20;;;12.50;90.90;;;;;;4985068;28;20100;-70
2022/07/12 03:29:51;;;;;;;19.60;1.80;;;12.40;90.90;;;;;;5006097;28;20410;-69
2022/07/12 03:32:17;;;;;;;13.27;1.17;;;12.50;90.90;;;;;;4990941;28;20034;-69
2022/07/12 03:34:43;;;;;;;13.60;2.20;;;12.40;91.00;;;;;;5000392;28;20034;-69
2022/07/12 03:37:08;;;;;;;17.53;1.77;;;12.40;91.10;;;;;;5007835;28;20903;-69
2022/07/12 03:39:34;;;;;;;9.37;1.10;;;12.40;91.20;;;;;;5006531;28;20041;-69
2022/07/12 03:42:00;;;;;;;5.93;1.40;;;12.40;91.20;;;;;;5012872;28;20449;-69
2022/07/12 03:44:25;;;;;;;6.93;1.30;;;12.40;91.30;;;;;;4991376;28;20056;-69
2022/07/12 03:46:51;;;;;;;6.73;1.67;;;12.40;91.30;;;;;;4990879;28;20042;-69
2022/07/12 03:49:17;;;;;;;13.13;1.77;;;12.40;91.20;;;;;;5006655;28;20415;-69
2022/07/12 03:51:42;;;;;;;9.47;1.50;;;12.40;91.30;;;;;;5006668;28;20073;-69
2022/07/12 03:54:08;;;;;;;4.63;1.60;;;12.40;91.40;;;;;;4990765;28;20034;-69
2022/07/12 03:59:19;;;;;;;8.65;1.88;;;12.40;91.40;;;;;;5004850;28;20041;-69
2022/07/12 04:01:44;;;;;;;11.03;1.80;;;12.40;91.40;;;;;;5001459;28;20109;-69
2022/07/12 04:04:10;;;;;;;5.77;1.53;;;12.40;91.30;;;;;;5004861;28;20827;-69
2022/07/12 04:06:36;;;;;;;2.40;1.30;;;12.50;91.40;;;;;;5006253;28;20045;-69
2022/07/12 04:09:02;;;;;;;5.47;1.80;;;12.50;91.40;;;;;;4989584;28;20038;-69
2022/07/12 04:11:28;;;;;;;4.37;1.67;;;12.60;91.50;;;;;;4989225;28;20057;-69
2022/07/12 04:13:54;;;;;;;11.00;2.00;;;12.70;91.60;;;;;;5007047;28;20296;-69
2022/07/12 04:16:19;;;;;;;3.43;1.60;;;12.70;91.60;;;;;;4990612;28;20130;-69
2022/07/12 04:18:45;;;;;;;14.53;2.00;;;12.80;91.50;;;;;;4988557;28;20046;-69
2022/07/12 04:21:11;;;;;;;12.83;1.93;;;12.90;91.50;;;;;;5003930;28;20482;-69
2022/07/12 04:23:36;;;;;;;6.30;1.70;;;13.00;91.50;;;;;;5007075;28;20096;-69
2022/07/12 04:26:02;;;;;;;6.33;2.03;;;13.20;91.20;;;;;;5006500;28;20046;-69
2022/07/12 04:28:28;;;;;;;18.37;2.27;;;13.30;91.10;;;;;;4989888;28;20037;-69
2022/07/12 04:30:53;;;;;;;3.80;1.80;;;13.50;91.00;;;;;;4989297;28;20400;-69
2022/07/12 04:33:19;;;;;;;8.07;2.57;;;13.60;90.80;;;;;;5006698;28;20116;-70
2022/07/12 04:35:45;;;;;;;3.70;2.23;;;13.80;90.60;;;;;;5005486;28;20041;-69
2022/07/12 04:38:11;;;;;;;4.13;2.20;;;14.00;90.40;;;;;;5004892;28;20034;-70
2022/07/12 04:40:37;;;;;;;8.07;2.27;;;14.30;90.10;;;;;;5004951;28;20685;-70
2022/07/12 04:43:03;;;;;;;1.97;1.60;;;14.50;89.50;;;;;;5006509;28;20048;-70
2022/07/12 04:45:28;;;;;;;2.00;1.47;;;14.70;88.80;;;;;;5014068;28;20288;-70
2022/07/12 04:47:54;;;;;;;1.73;1.40;;;15.00;88.60;;;;;;4980664;28;20042;-70
2022/07/12 04:50:20;;;;;;;1.43;1.23;;;15.50;87.40;;;;;;5005906;28;20080;-70
2022/07/12 04:52:45;;;;;;;3.00;1.40;;;16.10;86.20;;;;;;5006201;28;20029;-70
2022/07/12 04:55:11;;;;;;;3.17;1.30;;;16.50;83.60;;;;;;5005704;28;20045;-70
2022/07/12 04:57:37;;;;;;;2.93;1.80;;;16.70;82.20;;;;;;4989318;28;20457;-70
2022/07/12 05:00:07;;;;;;;2.90;1.90;;;16.60;81.60;;;;;;5005101;28;20038;-70
2022/07/12 05:02:33;;;;;;;1.83;1.40;;;16.40;81.50;;;;;;4999768;28;20387;-70
2022/07/12 05:04:59;;;;;;;2.13;1.60;;;16.10;81.70;;;;;;4989648;28;20350;-70
2022/07/12 05:07:25;;;;;;;3.63;1.60;;;15.90;82.10;;;;;;4996411;28;20578;-70
2022/07/12 05:09:51;;;;;;;2.40;1.70;;;15.80;82.60;;;;;;4986482;28;20320;-70
2022/07/12 05:12:18;;;;;;;2.53;1.60;;;15.70;83.10;;;;;;5006296;28;20056;-70
2022/07/12 05:14:43;;;;;;;2.70;1.97;;;15.70;83.40;;;;;;5005932;28;20316;-70
2022/07/12 05:17:09;;;;;;;2.43;1.90;;;15.70;83.70;;;;;;5006403;28;20324;-70
2022/07/12 05:19:37;;;;;;;2.97;1.97;;;15.90;84.10;;;;;;5005208;28;20108;-70
2022/07/12 05:22:03;;;;;;;2.90;2.33;;;16.10;83.80;;;;;;5006445;28;20556;-70
2022/07/12 05:24:29;;;;;;;3.63;2.50;;;16.30;83.20;;;;;;5000465;28;20293;-69
2022/07/12 05:26:55;;;;;;;3.10;2.13;;;16.40;82.80;;;;;;5000307;28;20284;-69
2022/07/12 05:29:20;;;;;;;3.53;2.67;;;16.40;82.60;;;;;;5002357;28;20493;-69
2022/07/12 05:31:46;;;;;;;5.63;3.17;;;16.50;82.60;;;;;;5005103;28;20042;-69
2022/07/12 05:34:12;;;;;;;5.10;2.90;;;16.50;82.50;;;;;;5001278;28;20038;-69
2022/07/12 05:36:38;;;;;;;4.47;3.20;;;16.50;82.70;;;;;;5004788;28;20113;-70
2022/07/12 05:39:04;;;;;;;4.37;2.60;;;16.60;82.80;;;;;;4987503;28;20292;-70
2022/07/12 05:41:29;;;;;;;4.63;3.30;;;16.80;82.70;;;;;;4967581;28;20095;-70
2022/07/12 05:43:55;;;;;;;5.13;3.10;;;17.20;83.00;;;;;;5005061;28;20042;-70
2022/07/12 05:46:21;;;;;;;4.80;3.17;;;18.00;81.90;;;;;;4989222;28;20053;-70
2022/07/12 05:48:46;;;;;;;5.77;3.87;;;19.00;79.70;;;;;;4988615;28;20533;-70
2022/07/12 05:53:56;;;;;;;5.23;3.07;;;20.40;74.20;;;;;;5004239;28;20443;-70
2022/07/12 05:56:22;;;;;;;5.27;3.17;;;21.40;72.80;;;;;;5005210;28;20313;-70
2022/07/12 05:58:47;;;;;;;5.30;3.27;;;22.20;70.30;;;;;;5004967;28;20844;-70
2022/07/12 06:01:13;;;;;;;3.40;2.43;;;22.50;68.30;;;;;;4999338;28;20045;-70
2022/07/12 06:03:39;;;;;;;3.63;2.60;;;22.60;66.50;;;;;;5005529;28;20050;-70
2022/07/12 06:06:04;;;;;;;4.13;2.20;;;22.20;66.90;;;;;;4972261;28;20193;-70
2022/07/12 06:08:30;;;;;;;3.07;2.33;;;21.90;67.90;;;;;;5004198;28;20644;-70
2022/07/12 06:10:56;;;;;;;3.73;2.70;;;21.90;68.00;;;;;;4986870;28;20046;-70
2022/07/12 06:13:22;;;;;;;3.43;2.73;;;21.90;67.80;;;;;;5003945;28;20038;-70
2022/07/12 06:15:48;;;;;;;4.00;3.03;;;22.20;67.40;;;;;;5008951;28;20424;-70
2022/07/12 06:18:14;;;;;;;6.53;3.07;;;22.50;66.80;;;;;;4968225;28;20038;-70
2022/07/12 06:20:39;;;;;;;5.40;2.83;;;23.00;65.80;;;;;;4992797;28;20041;-70
2022/07/12 06:23:05;;;;;;;4.93;3.13;;;23.20;64.60;;;;;;4994932;28;20058;-70
2022/07/12 06:25:31;;;;;;;3.60;2.60;;;23.20;64.50;;;;;;5011990;28;20132;-70
2022/07/12 06:28:00;;;;;;;3.10;2.33;;;23.20;64.70;;;;;;5011841;28;20089;-70
2022/07/12 06:30:26;;;;;;;3.33;2.40;;;23.00;64.80;;;;;;5009901;28;20127;-70
2022/07/12 06:32:52;;;;;;;3.37;2.73;;;22.90;65.40;;;;;;5005235;28;20503;-70
2022/07/12 06:35:18;;;;;;;3.10;2.40;;;22.70;65.50;;;;;;4999315;28;20049;-70
2022/07/12 06:37:43;;;;;;;4.30;2.67;;;22.50;65.90;;;;;;5004803;28;20044;-70
2022/07/12 06:40:10;;;;;;;3.13;2.50;;;22.20;66.30;;;;;;5011098;28;20044;-70
2022/07/12 06:42:36;;;;;;;2.27;2.07;;;21.70;67.40;;;;;;4992363;28;20519;-70
2022/07/12 06:45:03;;;;;;;3.30;3.00;;;21.40;68.70;;;;;;5003133;28;20034;-70
2022/07/12 06:47:28;;;;;;;3.03;2.73;;;21.10;69.70;;;;;;5011571;28;20482;-70
2022/07/12 06:49:54;;;;;;;4.43;3.20;;;20.80;70.60;;;;;;4990899;28;20046;-70
2022/07/12 06:52:20;;;;;;;4.03;2.90;;;20.70;71.40;;;;;;5018396;28;20129;-70
2022/07/12 06:54:46;;;;;;;3.40;3.07;;;20.80;71.80;;;;;;5011755;28;20045;-70
2022/07/12 06:57:11;;;;;;;4.00;2.90;;;20.90;71.60;;;;;;5011382;28;20041;-70
2022/07/12 06:59:37;;;;;;;3.03;2.70;;;21.20;71.30;;;;;;5010783;28;20552;-71
2022/07/12 07:02:04;;;;;;;3.23;2.67;;;21.60;70.50;;;;;;4994634;28;20482;-70
2022/07/12 07:04:30;;;;;;;3.13;2.83;;;22.10;69.80;;;;;;5011242;28;20050;-70
2022/07/12 07:06:55;;;;;;;3.80;2.87;;;22.50;69.20;;;;;;5011217;28;20057;-70
2022/07/12 07:09:21;;;;;;;2.90;2.60;;;22.60;68.70;;;;;;5011065;28;20072;-70
2022/07/12 07:11:47;;;;;;;3.70;3.03;;;22.60;68.40;;;;;;5011483;28;20383;-70
2022/07/12 07:14:13;;;;;;;4.20;2.90;;;22.40;68.80;;;;;;5011891;28;20084;-70
2022/07/12 07:16:38;;;;;;;3.60;2.80;;;22.40;69.50;;;;;;5011257;28;20037;-70
2022/07/12 07:19:05;;;;;;;2.90;2.60;;;22.30;69.70;;;;;;4978532;28;20044;-70
2022/07/12 07:21:31;;;;;;;4.17;3.20;;;22.20;70.00;;;;;;5004202;28;20049;-70
2022/07/12 07:23:57;;;;;;;4.30;3.07;;;22.10;69.90;;;;;;5010490;28;20320;-70
2022/07/12 07:26:23;;;;;;;3.40;2.80;;;21.90;70.20;;;;;;5006164;28;20053;-70
2022/07/12 07:31:35;;;;;;;4.68;3.45;;;21.90;70.90;;;;;;5008432;28;20061;-70
2022/07/12 07:34:01;;;;;;;3.93;3.00;;;21.80;70.90;;;;;;5002180;28;20042;-71
2022/07/12 07:36:26;;;;;;;4.07;2.90;;;21.80;70.80;;;;;;4997700;28;20357;-71
2022/07/12 07:38:52;;;;;;;2.90;2.60;;;21.70;71.10;;;;;;4989793;28;20136;-71
2022/07/12 07:41:18;;;;;;;3.10;2.80;;;21.70;71.20;;;;;;4997519;28;20084;-71
2022/07/12 07:43:44;;;;;;;3.80;2.77;;;21.80;71.30;;;;;;5007820;28;20049;-70
2022/07/12 07:46:09;;;;;;;3.97;2.60;;;21.80;70.60;;;;;;5012281;28;20042;-70
2022/07/12 07:48:35;;;;;;;7.03;3.07;;;21.70;70.50;;;;;;5000362;28;20426;-70
2022/07/12 07:51:01;;;;;;;3.50;3.20;;;21.60;70.60;;;;;;5008449;28;20050;-70
2022/07/12 07:53:27;;;;;;;4.20;2.87;;;21.50;70.80;;;;;;5007879;28;20124;-70
2022/07/12 07:55:52;;;;;;;4.87;2.70;;;21.40;71.50;;;;;;4975391;28;20533;-70
2022/07/12 07:58:20;;;;;;;3.57;2.80;;;21.40;71.60;;;;;;5006100;28;20064;-70
2022/07/12 08:00:47;;;;;;;3.60;2.70;;;21.40;71.80;;;;;;5004752;28;20046;-70
2022/07/12 08:03:13;;;;;;;3.40;2.77;;;21.40;71.90;;;;;;4989672;28;20614;-70
2022/07/12 08:05:38;;;;;;;3.93;3.53;;;21.30;71.70;;;;;;4990619;28;20038;-70
2022/07/12 08:08:04;;;;;;;6.50;3.70;;;21.30;71.70;;;;;;4990965;28;20060;-70
2022/07/12 08:10:30;;;;;;;4.53;3.50;;;21.30;71.60;;;;;;4991197;28;20495;-70
2022/07/12 08:12:56;;;;;;;4.13;3.63;;;21.40;71.60;;;;;;4990039;28;20121;-70
2022/07/12 08:15:22;;;;;;;4.23;3.00;;;21.50;71.40;;;;;;5001711;28;20200;-71
2022/07/12 08:17:48;;;;;;;3.67;3.33;;;21.70;71.10;;;;;;4989913;28;20449;-70
2022/07/12 08:20:13;;;;;;;3.80;3.40;;;21.80;71.00;;;;;;4993676;28;20041;-69
2022/07/12 08:22:46;;;;;;;3.47;2.90;;;21.80;70.90;;;;;;5004425;28;20046;-69
2022/07/12 08:25:15;;;;;;;4.37;3.73;;;21.90;71.20;;;;;;5002241;28;20380;-69
2022/07/12 08:27:41;;;;;;;3.47;3.17;;;22.10;70.90;;;;;;5006687;28;20129;-70
2022/07/12 08:30:07;;;;;;;4.83;3.30;;;22.20;70.50;;;;;;5006882;28;20053;-70
2022/07/12 08:32:33;;;;;;;3.53;3.00;;;22.30;69.70;;;;;;4987810;28;20076;-70
2022/07/12 08:34:59;;;;;;;4.33;3.40;;;22.50;70.10;;;;;;4998254;28;20038;-69
2022/07/12 08:37:25;;;;;;;3.27;2.87;;;22.70;69.80;;;;;;5017478;28;20084;-70
2022/07/12 08:39:51;;;;;;;4.07;3.40;;;22.80;69.70;;;;;;4986910;28;20050;-70
2022/07/12 08:42:21;;;;;;;4.00;3.60;;;22.90;68.90;;;;;;5002658;28;20167;-70
2022/07/12 08:44:56;;;;;;;4.17;3.60;;;23.00;69.20;;;;;;4999986;28;20053;-70
2022/07/12 08:47:22;;;;;;;3.50;3.20;;;23.00;68.80;;;;;;5005998;28;20037;-70
2022/07/12 08:50:16;;;;;;;3.63;3.07;;;23.10;68.90;;;;;;5015766;28;20140;-70
2022/07/12 08:52:47;;;;;;;3.50;3.20;;;23.20;68.30;;;;;;5003112;28;20073;-70
2022/07/12 08:55:25;;;;;;;3.10;2.63;;;23.30;68.30;;;;;;5007901;28;20104;-70
2022/07/12 08:57:53;;;;;;;2.83;2.53;;;23.50;68.30;;;;;;5008438;28;20549;-70
2022/07/12 09:00:19;;;;;;;3.33;2.27;;;23.80;67.90;;;;;;4979778;28;20042;-70
2022/07/12 09:02:45;;;;;;;3.20;2.73;;;23.90;66.40;;;;;;4998740;28;20065;-70
2022/07/12 09:05:11;;;;;;;3.67;2.97;;;24.10;66.00;;;;;;5000440;28;20188;-70
2022/07/12 09:07:38;;;;;;;3.53;2.20;;;24.30;65.30;;;;;;4982942;28;20038;-70
2022/07/12 09:10:08;;;;;;;4.83;3.00;;;24.40;65.00;;;;;;5001009;28;20494;-70
2022/07/12 09:12:35;;;;;;;3.17;2.87;;;24.60;64.20;;;;;;4995083;28;20103;-69
2022/07/12 09:15:11;;;;;;;4.13;3.73;;;24.70;64.00;;;;;;4999050;28;20128;-68
2022/07/12 09:17:36;;;;;;;3.17;2.80;;;24.60;62.40;;;;;;5004324;28;20041;-68
2022/07/12 09:20:03;;;;;;;4.23;3.17;;;24.50;63.70;;;;;;4987354;28;20091;-68
2022/07/12 09:22:29;;;;;;;3.87;3.17;;;24.60;63.20;;;;;;4984572;28;20077;-68
2022/07/12 09:24:55;;;;;;;4.73;3.70;;;24.60;62.80;;;;;;4985026;28;20443;-68
2022/07/12 09:27:27;;;;;;;3.90;3.33;;;24.70;62.70;;;;;;4984241;28;20261;-68
2022/07/12 09:29:53;;;;;;;4.23;3.53;;;24.70;62.30;;;;;;4985134;28;20100;-69
2022/07/12 09:37:49;;;;;;;4.33;3.93;;;24.90;62.40;;;;;;5009076;28;20079;-69
2022/07/12 09:40:14;;;;;;;4.00;3.67;;;25.20;61.20;;;;;;4999667;28;20779;-69
2022/07/12 09:42:41;;;;;;;3.70;3.40;;;25.30;61.10;;;;;;4998004;28;20046;-69
2022/07/12 09:45:09;;;;;;;4.37;3.50;;;25.50;60.60;;;;;;4989937;28;20057;-69
2022/07/12 09:47:35;;;;;;;4.03;2.83;;;25.70;59.50;;;;;;5000067;28;20053;-69
2022/07/12 09:50:01;;;;;;;3.13;2.37;;;25.90;59.50;;;;;;5003147;28;20050;-69
2022/07/12 09:52:28;;;;;;;3.67;2.67;;;26.00;59.30;;;;;;5004824;28;20464;-69
2022/07/12 09:54:55;;;;;;;4.97;3.00;;;26.00;58.90;;;;;;5004228;28;20038;-69
2022/07/12 09:57:21;;;;;;;4.27;3.00;;;25.80;58.30;;;;;;5014620;28;20040;-69
2022/07/12 09:59:50;;;;;;;3.13;2.60;;;25.80;58.50;;;;;;4983329;28;20454;-69
2022/07/12 10:02:17;;;;;;;3.13;2.40;;;26.00;59.10;;;;;;4988057;28;20065;-69
2022/07/12 10:04:44;;;;;;;4.00;3.40;;;26.10;58.90;;;;;;5003915;28;20302;-69
2022/07/12 10:07:14;;;;;;;4.73;3.27;;;26.20;57.60;;;;;;4992282;28;20050;-69
2022/07/12 10:09:42;;;;;;;4.00;3.23;;;26.20;57.20;;;;;;5003544;28;20345;-69
2022/07/12 10:12:10;;;;;;;4.53;2.83;;;26.30;57.50;;;;;;5003560;28;20042;-69
2022/07/12 10:14:38;;;;;;;3.40;2.77;;;26.30;57.90;;;;;;4998287;28;20041;-69
2022/07/12 10:17:08;;;;;;;4.03;3.10;;;26.30;57.20;;;;;;5005373;28;20034;-69
2022/07/12 10:19:36;;;;;;;3.43;2.63;;;26.30;56.50;;;;;;5004433;28;20399;-69
2022/07/12 10:22:04;;;;;;;3.70;2.80;;;26.20;56.90;;;;;;4988782;28;20045;-69
2022/07/12 10:24:32;;;;;;;3.83;2.47;;;26.20;56.90;;;;;;5004951;28;20053;-69
2022/07/12 10:26:59;;;;;;;4.07;2.60;;;26.10;56.20;;;;;;5005513;28;20454;-69
2022/07/12 10:29:25;;;;;;;2.67;2.37;;;26.20;56.30;;;;;;4987408;28;20103;-69
2022/07/12 10:31:52;;;;;;;3.87;2.83;;;26.10;56.50;;;;;;4995418;28;20038;-69
2022/07/12 10:34:23;;;;;;;2.63;2.23;;;26.20;56.50;;;;;;4976004;28;20462;-69
2022/07/12 10:36:54;;;;;;;2.53;2.33;;;26.10;56.00;;;;;;4998715;28;20128;-69
2022/07/12 10:39:25;;;;;;;2.70;2.13;;;26.10;56.00;;;;;;4993293;28;20046;-69
2022/07/12 10:42:06;;;;;;;4.13;3.40;;;25.90;56.60;;;;;;4969036;28;20042;-69
2022/07/12 10:44:37;;;;;;;3.93;3.30;;;25.70;56.40;;;;;;4996327;28;20510;-69
2022/07/12 10:47:04;;;;;;;3.87;2.80;;;25.60;56.50;;;;;;4983857;28;20593;-69
2022/07/12 10:49:32;;;;;;;3.40;2.90;;;25.60;57.00;;;;;;4996199;28;20486;-69
2022/07/12 10:52:22;;;;;;;4.50;3.40;;;25.60;56.70;;;;;;4979348;28;20332;-69
2022/07/12 10:55:13;;;;;;;3.27;2.93;;;25.60;56.30;;;;;;4982067;28;20048;-69
2022/07/12 10:57:43;;;;;;;3.93;3.13;;;25.70;55.70;;;;;;4987446;28;20046;-69
2022/07/12 11:00:11;;;;;;;3.50;3.20;;;25.80;56.00;;;;;;4996939;28;20450;-69
2022/07/12 11:02:36;;;;;;;3.70;2.87;;;26.00;56.00;;;;;;5004831;28;20120;-69
2022/07/12 11:05:03;;;;;;;3.93;2.43;;;26.10;56.10;;;;;;5000191;28;20087;-69
2022/07/12 11:07:29;;;;;;;3.00;2.57;;;26.30;54.90;;;;;;4995887;28;20489;-69
2022/07/12 11:09:55;;;;;;;4.50;2.27;;;26.60;54.70;;;;;;4990876;28;20031;-69
2022/07/12 11:12:30;;;;;;;2.80;2.20;;;26.80;54.10;;;;;;4977167;28;20088;-69
2022/07/12 11:14:57;;;;;;;;;;;27.00;53.50;;;;;;4978550;28;20644;-69
2022/07/12 11:17:34;;;;;;;2.67;1.97;;;27.10;52.20;;;;;;5003825;28;20277;-69
2022/07/12 11:20:12;;;;;;;3.93;2.33;;;27.10;52.10;;;;;;5016872;28;20044;-69
2022/07/12 11:22:40;;;;;;;1.97;1.70;;;27.30;51.40;;;;;;5003509;28;20039;-69
2022/07/12 11:25:09;;;;;;;3.43;2.10;;;27.40;51.40;;;;;;5001344;28;20038;-69
2022/07/12 11:27:35;;;;;;;3.70;1.97;;;27.40;51.20;;;;;;5002757;28;20026;-69
2022/07/12 11:30:02;;;;;;;3.27;1.93;;;27.40;52.00;;;;;;4999538;28;20038;-69
2022/07/12 11:32:39;;;;;;;2.43;1.80;;;27.30;51.70;;;;;;5001863;28;20048;-69
2022/07/12 11:35:21;;;;;;;2.83;1.77;;;27.60;50.30;;;;;;4999475;28;20034;-70
2022/07/12 11:37:51;;;;;;;3.33;1.63;;;27.80;50.90;;;;;;4999940;28;20180;-70
2022/07/12 11:40:22;;;;;;;3.73;1.80;;;28.00;51.40;;;;;;5003927;28;20556;-69
2022/07/12 11:42:58;;;;;;;2.70;1.60;;;28.10;50.50;;;;;;5007204;28;20393;-69
2022/07/12 11:45:33;;;;;;;1.97;1.30;;;28.10;50.10;;;;;;4991347;28;20037;-70
2022/07/12 11:47:59;;;;;;;;;;;28.30;49.70;;;;;;5012273;28;20046;-70
2022/07/12 11:50:25;;;;;;;2.27;1.40;;;28.30;49.20;;;;;;5007311;28;19944;-69
2022/07/12 11:52:51;;;;;;;2.47;1.17;;;28.40;48.60;;;;;;5004762;28;20042;-69
2022/07/12 11:55:17;;;;;;;1.70;1.30;;;28.50;48.30;;;;;;5004902;28;20144;-69
2022/07/12 11:57:43;;;;;;;1.60;1.20;;;28.40;47.90;;;;;;5006973;28;20092;-69
2022/07/12 12:00:17;;;;;;;3.40;1.53;;;28.40;48.20;;;;;;4991491;28;20034;-69
2022/07/12 12:02:43;;;;;;;3.08;1.63;;;28.30;48.90;;;;;;4990661;28;20056;-69
2022/07/12 12:05:12;;;;;;;2.40;1.53;;;27.70;49.70;;;;;;4997049;28;20870;-69
2022/07/12 12:07:38;;;;;;;1.77;1.13;;;27.90;49.90;;;;;;4982554;28;20038;-69
2022/07/12 12:10:14;;;;;;;2.60;1.47;;;28.00;50.20;;;;;;4990435;28;20045;-69
2022/07/12 12:12:52;;;;;;;2.00;1.30;;;28.00;48.40;;;;;;5004609;28;20399;-69
2022/07/12 12:15:18;;;;;;;3.07;1.50;;;28.10;48.40;;;;;;5020405;28;20044;-69
2022/07/12 12:18:05;;;;;;;1.50;1.07;;;28.30;49.30;;;;;;5002933;28;20044;-69
2022/07/12 12:20:38;;;;;;;1.67;1.27;;;28.50;46.90;;;;;;5000607;28;20494;-69
2022/07/12 12:23:19;;;;;;;1.83;1.30;;;28.70;48.00;;;;;;4986235;28;20049;-69
2022/07/12 12:25:45;;;;;;;2.47;1.20;;;28.80;46.70;;;;;;5002575;28;20050;-70
2022/07/12 12:28:12;;;;;;;2.33;1.57;;;28.90;46.50;;;;;;5006804;28;20073;-70
2022/07/12 12:30:59;;;;;;;2.30;1.27;;;28.90;46.50;;;;;;5006885;28;20049;-70
2022/07/12 12:33:35;;;;;;;1.73;1.30;;;29.00;47.40;;;;;;4990637;28;20041;-69
2022/07/12 12:36:22;;;;;;;4.33;1.50;;;29.00;46.30;;;;;;5009342;28;20030;-69
2022/07/12 12:38:52;;;;;;;3.67;1.70;;;29.00;46.50;;;;;;5005120;28;20145;-69
2022/07/12 12:41:19;;;;;;;3.03;2.00;;;28.90;46.60;;;;;;5006092;28;20494;-69
2022/07/12 12:43:45;;;;;;;3.17;1.87;;;28.90;46.20;;;;;;5006622;28;20375;-69
2022/07/12 12:46:10;;;;;;;1.73;1.30;;;28.80;46.00;;;;;;5007002;28;20041;-69
2022/07/12 12:48:37;;;;;;;3.30;2.00;;;28.80;45.70;;;;;;5003849;28;20046;-69
2022/07/12 12:51:07;;;;;;;1.90;1.60;;;28.80;46.10;;;;;;5007229;28;20494;-69
2022/07/12 12:53:33;;;;;;;2.37;1.80;;;28.60;46.70;;;;;;4989368;28;20042;-69
2022/07/12 12:55:59;;;;;;;1.40;1.30;;;28.60;46.00;;;;;;5006734;28;20125;-69
2022/07/12 12:58:25;;;;;;;2.00;1.20;;;28.50;46.30;;;;;;4988601;28;20117;-69
2022/07/12 13:00:53;;;;;;;2.37;1.50;;;28.50;47.20;;;;;;4986868;28;20038;-70